Time,TemperatureF,DewpointF,PressureIn,WindDirection,WindDirectionDegrees,WindSpeedMPH,WindSpeedGustMPH,Humidity,HourlyPrecipIn,Conditions,Clouds,dailyrainin,SoftwareType,DateUTC
2013-11-04 00:14:00,-999.0,-99.9,30.30,North,-999,-999.0,-999.0,-999,0.00,,,0.00,weatherlink.com 1.10,2013-11-04 05:14:00,
2013-11-04 00:30:00,-999.0,-99.9,30.31,North,-999,-999.0,-999.0,-999,0.00,,,0.00,weatherlink.com 1.10,2013-11-04 05:30:00,
2013-11-04 00:45:00,-999.0,-99.9,30.32,North,-999,-999.0,-999.0,-999,0.00,,,0.00,weatherlink.com 1.10,2013-11-04 05:45:00,
2013-11-04 01:00:00,-999.0,-99.9,30.33,North,-999,-999.0,-999.0,-999,0.00,,,0.00,weatherlink.com 1.10,2013-11-04 06:00:00,
2013-11-04 01:15:00,-999.0,-99.9,30.34,North,-999,-999.0,-999.0,-999,0.00,,,0.00,weatherlink.com 1.10,2013-11-04 06:15:00,
2013-11-04 01:30:00,-999.0,-99.9,30.35,North,-999,-999.0,-999.0,-999,0.00,,,0.00,weatherlink.com 1.10,2013-11-04 06:30:00,
2013-11-04 01:45:00,-999.0,-99.9,30.36,North,-999,-999.0,-999.0,-999,0.00,,,0.00,weatherlink.com 1.10,2013-11-04 06:45:00,
2013-11-04 02:00:00,-999.0,-99.9,30.36,North,-999,-999.0,-999.0,-999,0.00,,,0.00,weatherlink.com 1.10,2013-11-04 07:00:00,
2013-11-04 02:15:00,-999.0,-99.9,30.36,North,-999,-999.0,-999.0,-999,0.00,,,0.00,weatherlink.com 1.10,2013-11-04 07:15:00,
2013-11-04 02:30:00,-999.0,-99.9,30.37,North,-999,-999.0,-999.0,-999,0.00,,,0.00,weatherlink.com 1.10,2013-11-04 07:30:00,
2013-11-04 02:45:00,-999.0,-99.9,30.38,North,-999,-999.0,-999.0,-999,0.00,,,0.00,weatherlink.com 1.10,2013-11-04 07:45:00,
2013-11-04 03:00:00,-999.0,-99.9,30.38,North,-999,-999.0,-999.0,-999,0.00,,,0.00,weatherlink.com 1.10,2013-11-04 08:00:00,
2013-11-04 03:15:00,-999.0,-99.9,30.39,North,-999,-999.0,-999.0,-999,0.00,,,0.00,weatherlink.com 1.10,2013-11-04 08:15:00,
2013-11-04 03:30:00,-999.0,-99.9,30.39,North,-999,-999.0,-999.0,-999,0.00,,,0.00,weatherlink.com 1.10,2013-11-04 08:30:00,
2013-11-04 03:45:00,-999.0,-99.9,30.40,North,-999,-999.0,-999.0,-999,0.00,,,0.00,weatherlink.com 1.10,2013-11-04 08:45:00,
2013-11-04 04:01:00,-999.0,-99.9,30.40,North,-999,-999.0,-999.0,-999,0.00,,,0.00,weatherlink.com 1.10,2013-11-04 09:01:00,
2013-11-04 04:16:00,-999.0,-99.9,30.41,North,-999,-999.0,-999.0,-999,0.00,,,0.00,weatherlink.com 1.10,2013-11-04 09:16:00,
2013-11-04 04:31:00,-999.0,-99.9,30.41,North,-999,-999.0,-999.0,-999,0.00,,,0.00,weatherlink.com 1.10,2013-11-04 09:31:00,
2013-11-04 04:46:00,-999.0,-99.9,30.42,North,-999,-999.0,-999.0,-999,0.00,,,0.00,weatherlink.com 1.10,2013-11-04 09:46:00,
2013-11-04 05:01:00,-999.0,-99.9,30.43,North,-999,-999.0,-999.0,-999,0.00,,,0.00,weatherlink.com 1.10,2013-11-04 10:01:00,
2013-11-04 05:16:00,-999.0,-99.9,30.43,North,-999,-999.0,-999.0,-999,0.00,,,0.00,weatherlink.com 1.10,2013-11-04 10:16:00,
2013-11-04 05:31:00,-999.0,-99.9,30.44,North,-999,-999.0,-999.0,-999,0.00,,,0.00,weatherlink.com 1.10,2013-11-04 10:31:00,
2013-11-04 05:46:00,-999.0,-99.9,30.45,North,-999,-999.0,-999.0,-999,0.00,,,0.00,weatherlink.com 1.10,2013-11-04 10:46:00,
2013-11-04 06:01:00,-999.0,-99.9,30.45,North,-999,-999.0,-999.0,-999,0.00,,,0.00,weatherlink.com 1.10,2013-11-04 11:01:00,
2013-11-04 06:16:00,-999.0,-99.9,30.46,North,-999,-999.0,-999.0,-999,0.00,,,0.00,weatherlink.com 1.10,2013-11-04 11:16:00,
2013-11-04 06:31:00,-999.0,-99.9,30.47,North,-999,-999.0,-999.0,-999,0.00,,,0.00,weatherlink.com 1.10,2013-11-04 11:31:00,
2013-11-04 06:46:00,42.3,32.0,30.48,NNE,31,19.0,24.0,66,0.00,,,0.00,weatherlink.com 1.10,2013-11-04 11:46:00,
2013-11-04 07:01:00,42.1,31.0,30.49,NNE,26,16.0,24.0,66,0.00,,,0.00,weatherlink.com 1.10,2013-11-04 12:01:00,
2013-11-04 07:16:00,42.3,32.0,30.49,NNE,27,19.0,22.0,66,0.00,,,0.00,weatherlink.com 1.10,2013-11-04 12:16:00,
2013-11-04 07:31:00,42.4,32.0,30.50,NNE,18,16.0,23.0,68,0.00,,,0.00,weatherlink.com 1.10,2013-11-04 12:31:00,
2013-11-04 07:46:00,42.3,30.0,30.50,NE,45,16.0,24.0,62,0.00,,,0.00,weatherlink.com 1.10,2013-11-04 12:46:00,
2013-11-04 08:02:00,42.4,31.0,30.51,NE,36,22.0,24.0,65,0.00,,,0.00,weatherlink.com 1.10,2013-11-04 13:02:00,
2013-11-04 08:17:00,42.5,31.0,30.51,NNE,14,21.0,22.0,64,0.00,,,0.00,weatherlink.com 1.10,2013-11-04 13:17:00,
2013-11-04 08:32:00,42.4,30.0,30.51,NNE,27,15.0,22.0,63,0.00,,,0.00,weatherlink.com 1.10,2013-11-04 13:32:00,
2013-11-04 08:47:00,42.6,33.0,30.51,NE,39,17.0,23.0,68,0.00,,,0.00,weatherlink.com 1.10,2013-11-04 13:47:00,
2013-11-04 09:02:00,42.6,33.0,30.51,NNE,16,18.0,21.0,68,0.00,,,0.00,weatherlink.com 1.10,2013-11-04 14:02:00,
2013-11-04 09:17:00,42.6,33.0,30.51,NNE,27,12.0,21.0,70,0.00,,,0.00,weatherlink.com 1.10,2013-11-04 14:17:00,
2013-11-04 09:32:00,42.6,31.0,30.52,NE,50,16.0,23.0,64,0.00,,,0.00,weatherlink.com 1.10,2013-11-04 14:32:00,
2013-11-04 09:47:00,42.8,31.0,30.52,NE,53,15.0,23.0,63,0.00,,,0.00,weatherlink.com 1.10,2013-11-04 14:47:00,
2013-11-04 10:02:00,42.9,32.0,30.52,NE,44,17.0,21.0,65,0.00,,,0.00,weatherlink.com 1.10,2013-11-04 15:02:00,
2013-11-04 10:17:00,42.8,32.0,30.53,NE,39,16.0,23.0,67,0.00,,,0.00,weatherlink.com 1.10,2013-11-04 15:17:00,
2013-11-04 10:32:00,42.7,32.0,30.53,NE,40,20.0,22.0,65,0.00,,,0.00,weatherlink.com 1.10,2013-11-04 15:32:00,
2013-11-04 10:47:00,42.5,31.0,30.53,NE,41,14.0,20.0,65,0.00,,,0.00,weatherlink.com 1.10,2013-11-04 15:47:00,
2013-11-04 11:02:00,42.7,33.0,30.53,NE,34,12.0,21.0,69,0.00,,,0.00,weatherlink.com 1.10,2013-11-04 16:02:00,
2013-11-04 11:17:00,42.9,31.0,30.54,ENE,70,13.0,19.0,64,0.00,,,0.00,weatherlink.com 1.10,2013-11-04 16:17:00,
2013-11-04 11:32:00,42.7,32.0,30.55,NE,40,13.0,19.0,66,0.00,,,0.00,weatherlink.com 1.10,2013-11-04 16:32:00,
2013-11-04 11:47:00,42.4,30.0,30.55,NNE,29,12.0,21.0,63,0.00,,,0.00,weatherlink.com 1.10,2013-11-04 16:47:00,
2013-11-04 12:02:00,42.3,30.0,30.55,NNE,30,14.0,20.0,63,0.00,,,0.00,weatherlink.com 1.10,2013-11-04 17:02:00,
2013-11-04 12:17:00,42.5,32.0,30.56,NNE,26,16.0,20.0,66,0.00,,,0.00,weatherlink.com 1.10,2013-11-04 17:17:00,
2013-11-04 12:32:00,42.4,31.0,30.56,NNE,14,14.0,16.0,65,0.00,,,0.00,weatherlink.com 1.10,2013-11-04 17:32:00,
2013-11-04 12:47:00,42.4,31.0,30.55,NE,46,12.0,21.0,64,0.00,,,0.00,weatherlink.com 1.10,2013-11-04 17:47:00,
2013-11-04 13:02:00,42.2,31.0,30.55,NE,47,13.0,18.0,66,0.00,,,0.00,weatherlink.com 1.10,2013-11-04 18:02:00,
2013-11-04 13:17:00,42.3,33.0,30.54,NE,43,17.0,19.0,70,0.00,,,0.00,weatherlink.com 1.10,2013-11-04 18:17:00,
2013-11-04 13:32:00,42.2,33.0,30.55,NE,46,15.0,18.0,69,0.00,,,0.00,weatherlink.com 1.10,2013-11-04 18:32:00,
2013-11-04 13:47:00,42.1,31.0,30.54,NE,41,16.0,18.0,65,0.00,,,0.00,weatherlink.com 1.10,2013-11-04 18:47:00,
2013-11-04 14:02:00,42.1,32.0,30.55,NNE,19,12.0,17.0,67,0.00,,,0.00,weatherlink.com 1.10,2013-11-04 19:02:00,
2013-11-04 14:17:00,41.9,30.0,30.56,North,8,13.0,17.0,64,0.00,,,0.00,weatherlink.com 1.10,2013-11-04 19:17:00,
2013-11-04 14:32:00,41.7,31.0,30.56,NE,34,14.0,18.0,66,0.00,,,0.00,weatherlink.com 1.10,2013-11-04 19:32:00,
2013-11-04 14:47:00,41.9,32.0,30.56,NE,50,14.0,16.0,67,0.00,,,0.00,weatherlink.com 1.10,2013-11-04 19:47:00,
2013-11-04 15:02:00,41.6,31.0,30.57,NE,50,10.0,18.0,66,0.00,,,0.00,weatherlink.com 1.10,2013-11-04 20:02:00,
2013-11-04 15:17:00,41.9,33.0,30.56,NE,56,13.0,17.0,70,0.00,,,0.00,weatherlink.com 1.10,2013-11-04 20:17:00,
2013-11-04 15:32:00,41.9,32.0,30.57,NNE,18,15.0,19.0,69,0.00,,,0.00,weatherlink.com 1.10,2013-11-04 20:32:00,
2013-11-04 15:47:00,41.7,32.0,30.57,ENE,57,12.0,17.0,68,0.00,,,0.00,weatherlink.com 1.10,2013-11-04 20:47:00,
2013-11-04 16:02:00,41.6,32.0,30.58,ENE,57,11.0,16.0,68,0.00,,,0.00,weatherlink.com 1.10,2013-11-04 21:02:00,
2013-11-04 16:17:00,41.3,32.0,30.59,NE,53,8.0,19.0,70,0.00,,,0.00,weatherlink.com 1.10,2013-11-04 21:17:00,
2013-11-04 16:32:00,41.5,33.0,30.59,NNE,26,15.0,16.0,71,0.00,,,0.00,weatherlink.com 1.10,2013-11-04 21:32:00,
2013-11-04 16:47:00,41.3,31.0,30.60,NE,35,12.0,18.0,68,0.00,,,0.00,weatherlink.com 1.10,2013-11-04 21:47:00,
2013-11-04 17:02:00,41.2,32.0,30.60,NE,39,13.0,14.0,69,0.00,,,0.00,weatherlink.com 1.10,2013-11-04 22:02:00,
2013-11-04 17:17:00,41.1,32.0,30.60,NNE,23,15.0,17.0,69,0.00,,,0.00,weatherlink.com 1.10,2013-11-04 22:17:00,
2013-11-04 17:32:00,41.4,33.0,30.60,NE,50,11.0,17.0,72,0.00,,,0.00,weatherlink.com 1.10,2013-11-04 22:32:00,
2013-11-04 17:47:00,41.2,32.0,30.61,NE,47,13.0,18.0,69,0.00,,,0.00,weatherlink.com 1.10,2013-11-04 22:47:00,
2013-11-04 18:02:00,41.0,31.0,30.62,NNE,16,10.0,21.0,67,0.00,,,0.00,weatherlink.com 1.10,2013-11-04 23:02:00,
2013-11-04 18:17:00,41.2,32.0,30.62,NE,43,9.0,14.0,70,0.00,,,0.00,weatherlink.com 1.10,2013-11-04 23:17:00,
2013-11-04 18:32:00,41.1,32.0,30.62,ENE,68,9.0,16.0,69,0.00,,,0.00,weatherlink.com 1.10,2013-11-04 23:32:00,
2013-11-04 18:47:00,41.3,33.0,30.63,ENE,60,6.0,14.0,71,0.00,,,0.00,weatherlink.com 1.10,2013-11-04 23:47:00,
2013-11-04 19:02:00,41.3,33.0,30.63,NE,44,12.0,14.0,71,0.00,,,0.00,weatherlink.com 1.10,2013-11-05 00:02:00,
2013-11-04 19:17:00,41.0,31.0,30.63,ENE,57,9.0,12.0,67,0.00,,,0.00,weatherlink.com 1.10,2013-11-05 00:17:00,
2013-11-04 19:33:00,41.2,33.0,30.63,NE,46,11.0,15.0,72,0.00,,,0.00,weatherlink.com 1.10,2013-11-05 00:33:00,
2013-11-04 19:48:00,40.9,31.0,30.63,NNE,30,9.0,14.0,68,0.00,,,0.00,weatherlink.com 1.10,2013-11-05 00:48:00,
2013-11-04 20:03:00,41.1,32.0,30.63,ENE,61,12.0,16.0,69,0.00,,,0.00,weatherlink.com 1.10,2013-11-05 01:03:00,
2013-11-04 20:18:00,41.1,32.0,30.64,ENE,72,12.0,12.0,69,0.00,,,0.00,weatherlink.com 1.10,2013-11-05 01:18:00,
2013-11-04 20:33:00,41.3,33.0,30.63,NE,56,12.0,13.0,71,0.00,,,0.00,weatherlink.com 1.10,2013-11-05 01:33:00,
2013-11-04 20:48:00,41.2,32.0,30.63,NE,53,10.0,16.0,69,0.00,,,0.00,weatherlink.com 1.10,2013-11-05 01:48:00,
2013-11-04 21:03:00,41.5,33.0,30.62,NE,54,12.0,13.0,72,0.00,,,0.00,weatherlink.com 1.10,2013-11-05 02:03:00,
2013-11-04 21:18:00,41.4,32.0,30.62,ENE,75,9.0,15.0,69,0.00,,,0.00,weatherlink.com 1.10,2013-11-05 02:18:00,
2013-11-04 21:33:00,41.3,32.0,30.62,ENE,67,9.0,-999.0,70,-99.99,,,0.00,weatherlink.com 1.10,2013-11-05 02:33:00,
2013-11-04 21:48:00,41.4,33.0,30.63,ENE,68,8.0,13.0,71,0.00,,,0.00,weatherlink.com 1.10,2013-11-05 02:48:00,
2013-11-04 22:03:00,41.6,33.0,30.62,East,100,6.0,10.0,71,0.00,,,0.00,weatherlink.com 1.10,2013-11-05 03:03:00,
2013-11-04 22:18:00,41.9,33.0,30.63,East,100,6.0,12.0,70,0.00,,,0.00,weatherlink.com 1.10,2013-11-05 03:18:00,
2013-11-04 22:33:00,42.0,33.0,30.63,ENE,70,4.0,8.0,70,0.00,,,0.00,weatherlink.com 1.10,2013-11-05 03:33:00,
2013-11-04 22:48:00,42.2,33.0,30.63,ENE,64,6.0,9.0,69,0.00,,,0.00,weatherlink.com 1.10,2013-11-05 03:48:00,
2013-11-04 23:03:00,42.4,34.0,30.63,ENE,68,5.0,9.0,72,0.00,,,0.00,weatherlink.com 1.10,2013-11-05 04:03:00,
2013-11-04 23:18:00,42.5,34.0,30.63,ENE,60,6.0,7.0,71,0.00,,,0.00,weatherlink.com 1.10,2013-11-05 04:18:00,
2013-11-04 23:33:00,42.6,33.0,30.64,NE,56,2.0,6.0,68,0.00,,,0.00,weatherlink.com 1.10,2013-11-05 04:33:00,
2013-11-04 23:48:00,42.6,33.0,30.64,NNW,335,5.0,6.0,70,0.00,,,0.00,weatherlink.com 1.10,2013-11-05 04:48:00,